sensor_id;sensor_type;location;lat;lon;timestamp;temperature;humidity
21031;DHT22;61072;47.808;7.636;2022-07-23T00:00:16;25.10;99.90
21031;DHT22;61072;47.808;7.636;2022-07-23T00:02:43;25.10;99.90
21031;DHT22;61072;47.808;7.636;2022-07-23T00:05:10;25.10;99.90
21031;DHT22;61072;47.808;7.636;2022-07-23T00:07:38;25.00;99.90
21031;DHT22;61072;47.808;7.636;2022-07-23T00:10:05;24.90;99.90
21031;DHT22;61072;47.808;7.636;2022-07-23T00:12:32;24.90;99.90
21031;DHT22;61072;47.808;7.636;2022-07-23T00:14:59;24.80;99.90
21031;DHT22;61072;47.808;7.636;2022-07-23T00:17:26;24.90;99.90
21031;DHT22;61072;47.808;7.636;2022-07-23T00:19:53;24.80;99.90
21031;DHT22;61072;47.808;7.636;2022-07-23T00:22:20;24.80;99.90
21031;DHT22;61072;47.808;7.636;2022-07-23T00:24:47;24.70;99.90
21031;DHT22;61072;47.808;7.636;2022-07-23T00:27:33;24.50;99.90
21031;DHT22;61072;47.808;7.636;2022-07-23T00:30:00;24.30;99.90
21031;DHT22;61072;47.808;7.636;2022-07-23T00:32:27;23.90;99.90
21031;DHT22;61072;47.808;7.636;2022-07-23T00:35:14;24.00;99.90
21031;DHT22;61072;47.808;7.636;2022-07-23T00:37:41;24.10;99.90
21031;DHT22;61072;47.808;7.636;2022-07-23T00:40:09;24.20;99.90
21031;DHT22;61072;47.808;7.636;2022-07-23T00:42:36;24.20;99.90
21031;DHT22;61072;47.808;7.636;2022-07-23T00:45:03;24.20;99.90
21031;DHT22;61072;47.808;7.636;2022-07-23T00:47:30;24.20;99.90
21031;DHT22;61072;47.808;7.636;2022-07-23T00:49:57;24.20;99.90
21031;DHT22;61072;47.808;7.636;2022-07-23T00:52:24;24.20;99.90
21031;DHT22;61072;47.808;7.636;2022-07-23T00:54:51;24.20;99.90
21031;DHT22;61072;47.808;7.636;2022-07-23T00:57:18;24.20;99.90
21031;DHT22;61072;47.808;7.636;2022-07-23T00:59:51;24.20;99.90
21031;DHT22;61072;47.808;7.636;2022-07-23T01:02:17;24.20;99.90
21031;DHT22;61072;47.808;7.636;2022-07-23T01:04:45;24.10;99.90
21031;DHT22;61072;47.808;7.636;2022-07-23T01:07:11;24.20;99.90
21031;DHT22;61072;47.808;7.636;2022-07-23T01:09:38;24.20;99.90
21031;DHT22;61072;47.808;7.636;2022-07-23T01:12:05;24.20;99.90
21031;DHT22;61072;47.808;7.636;2022-07-23T01:14:33;24.20;99.90
21031;DHT22;61072;47.808;7.636;2022-07-23T01:16:59;24.10;99.90
21031;DHT22;61072;47.808;7.636;2022-07-23T01:19:26;24.00;99.90
21031;DHT22;61072;47.808;7.636;2022-07-23T01:21:53;24.00;99.90
21031;DHT22;61072;47.808;7.636;2022-07-23T01:24:21;23.90;99.90
21031;DHT22;61072;47.808;7.636;2022-07-23T01:26:48;23.90;99.90
21031;DHT22;61072;47.808;7.636;2022-07-23T01:29:15;23.80;99.90
21031;DHT22;61072;47.808;7.636;2022-07-23T01:31:43;23.80;99.90
21031;DHT22;61072;47.808;7.636;2022-07-23T01:34:11;23.80;99.90
21031;DHT22;61072;47.808;7.636;2022-07-23T01:36:37;23.90;99.90
21031;DHT22;61072;47.808;7.636;2022-07-23T01:39:06;23.80;99.90
21031;DHT22;61072;47.808;7.636;2022-07-23T01:41:33;23.90;99.90
21031;DHT22;61072;47.808;7.636;2022-07-23T01:44:00;24.00;99.90
21031;DHT22;61072;47.808;7.636;2022-07-23T01:46:27;23.90;99.90
21031;DHT22;61072;47.808;7.636;2022-07-23T01:48:54;24.00;99.90
21031;DHT22;61072;47.808;7.636;2022-07-23T01:51:21;23.80;99.90
21031;DHT22;61072;47.808;7.636;2022-07-23T01:53:47;23.80;99.90
21031;DHT22;61072;47.808;7.636;2022-07-23T01:56:14;23.80;99.90
21031;DHT22;61072;47.808;7.636;2022-07-23T01:58:41;23.80;99.90
21031;DHT22;61072;47.808;7.636;2022-07-23T02:01:08;23.80;99.90
21031;DHT22;61072;47.808;7.636;2022-07-23T02:03:35;23.80;99.90
21031;DHT22;61072;47.808;7.636;2022-07-23T02:06:02;23.80;99.90
21031;DHT22;61072;47.808;7.636;2022-07-23T02:08:28;23.80;99.90
21031;DHT22;61072;47.808;7.636;2022-07-23T02:10:55;23.70;99.90
21031;DHT22;61072;47.808;7.636;2022-07-23T02:13:22;23.60;99.90
21031;DHT22;61072;47.808;7.636;2022-07-23T02:15:49;23.60;99.90
21031;DHT22;61072;47.808;7.636;2022-07-23T02:18:16;23.50;99.90
21031;DHT22;61072;47.808;7.636;2022-07-23T02:20:42;23.60;99.90
21031;DHT22;61072;47.808;7.636;2022-07-23T02:23:11;23.60;99.90
21031;DHT22;61072;47.808;7.636;2022-07-23T02:25:37;23.60;99.90
21031;DHT22;61072;47.808;7.636;2022-07-23T02:28:04;23.60;99.90
21031;DHT22;61072;47.808;7.636;2022-07-23T02:30:31;23.60;99.90
21031;DHT22;61072;47.808;7.636;2022-07-23T02:32:58;23.60;99.90
21031;DHT22;61072;47.808;7.636;2022-07-23T02:35:25;23.60;99.90
21031;DHT22;61072;47.808;7.636;2022-07-23T02:37:51;23.60;99.90
21031;DHT22;61072;47.808;7.636;2022-07-23T02:40:18;23.60;99.90
21031;DHT22;61072;47.808;7.636;2022-07-23T02:42:45;23.60;99.90
21031;DHT22;61072;47.808;7.636;2022-07-23T02:45:12;23.60;99.90
21031;DHT22;61072;47.808;7.636;2022-07-23T02:47:39;23.60;99.90
21031;DHT22;61072;47.808;7.636;2022-07-23T02:50:06;23.50;99.90
21031;DHT22;61072;47.808;7.636;2022-07-23T02:52:33;23.50;99.90
21031;DHT22;61072;47.808;7.636;2022-07-23T02:55:00;23.40;99.90
21031;DHT22;61072;47.808;7.636;2022-07-23T02:57:26;23.30;99.90
21031;DHT22;61072;47.808;7.636;2022-07-23T02:59:53;23.20;99.90
21031;DHT22;61072;47.808;7.636;2022-07-23T03:02:20;23.30;99.90
21031;DHT22;61072;47.808;7.636;2022-07-23T03:04:46;23.20;99.90
21031;DHT22;61072;47.808;7.636;2022-07-23T03:07:13;23.20;99.90
21031;DHT22;61072;47.808;7.636;2022-07-23T03:09:59;23.30;99.90
21031;DHT22;61072;47.808;7.636;2022-07-23T03:12:26;23.30;99.90
21031;DHT22;61072;47.808;7.636;2022-07-23T03:14:52;23.30;99.90
21031;DHT22;61072;47.808;7.636;2022-07-23T03:17:19;23.30;99.90
21031;DHT22;61072;47.808;7.636;2022-07-23T03:19:46;23.30;99.90
21031;DHT22;61072;47.808;7.636;2022-07-23T03:22:12;23.10;99.90
21031;DHT22;61072;47.808;7.636;2022-07-23T03:24:39;23.20;99.90
21031;DHT22;61072;47.808;7.636;2022-07-23T03:27:26;23.30;99.90
21031;DHT22;61072;47.808;7.636;2022-07-23T03:29:54;23.30;99.90
21031;DHT22;61072;47.808;7.636;2022-07-23T03:32:23;23.30;99.90
21031;DHT22;61072;47.808;7.636;2022-07-23T03:34:50;23.10;99.90
21031;DHT22;61072;47.808;7.636;2022-07-23T03:37:18;23.20;99.90
21031;DHT22;61072;47.808;7.636;2022-07-23T03:39:45;23.20;99.90
21031;DHT22;61072;47.808;7.636;2022-07-23T03:42:12;23.10;99.90
21031;DHT22;61072;47.808;7.636;2022-07-23T03:44:38;23.00;99.90
21031;DHT22;61072;47.808;7.636;2022-07-23T03:47:05;22.90;99.90
21031;DHT22;61072;47.808;7.636;2022-07-23T03:49:33;22.90;99.90
21031;DHT22;61072;47.808;7.636;2022-07-23T03:52:00;22.90;99.90
21031;DHT22;61072;47.808;7.636;2022-07-23T03:54:27;22.90;99.90
21031;DHT22;61072;47.808;7.636;2022-07-23T03:56:53;22.90;99.90
21031;DHT22;61072;47.808;7.636;2022-07-23T03:59:20;22.90;99.90
21031;DHT22;61072;47.808;7.636;2022-07-23T04:01:50;22.80;99.90
21031;DHT22;61072;47.808;7.636;2022-07-23T04:04:16;22.80;99.90
21031;DHT22;61072;47.808;7.636;2022-07-23T04:06:43;22.80;99.90
21031;DHT22;61072;47.808;7.636;2022-07-23T04:09:10;22.70;99.90
21031;DHT22;61072;47.808;7.636;2022-07-23T04:11:37;22.80;99.90
21031;DHT22;61072;47.808;7.636;2022-07-23T04:14:03;22.70;99.90
21031;DHT22;61072;47.808;7.636;2022-07-23T04:16:30;22.70;99.90
21031;DHT22;61072;47.808;7.636;2022-07-23T04:18:58;22.80;99.90
21031;DHT22;61072;47.808;7.636;2022-07-23T04:21:25;22.80;99.90
21031;DHT22;61072;47.808;7.636;2022-07-23T04:23:52;22.90;99.90
21031;DHT22;61072;47.808;7.636;2022-07-23T04:26:19;22.80;99.90
21031;DHT22;61072;47.808;7.636;2022-07-23T04:28:46;22.80;99.90
21031;DHT22;61072;47.808;7.636;2022-07-23T04:31:12;22.90;99.90
21031;DHT22;61072;47.808;7.636;2022-07-23T04:33:39;22.90;99.90
21031;DHT22;61072;47.808;7.636;2022-07-23T04:36:06;22.90;99.90
21031;DHT22;61072;47.808;7.636;2022-07-23T04:38:33;22.90;99.90
21031;DHT22;61072;47.808;7.636;2022-07-23T04:41:00;23.00;99.90
21031;DHT22;61072;47.808;7.636;2022-07-23T04:43:27;22.90;99.90
21031;DHT22;61072;47.808;7.636;2022-07-23T04:45:54;22.90;99.90
21031;DHT22;61072;47.808;7.636;2022-07-23T04:48:21;23.00;99.90
21031;DHT22;61072;47.808;7.636;2022-07-23T04:50:48;23.00;99.90
21031;DHT22;61072;47.808;7.636;2022-07-23T04:53:15;23.00;99.90
21031;DHT22;61072;47.808;7.636;2022-07-23T04:55:41;23.00;99.90
21031;DHT22;61072;47.808;7.636;2022-07-23T04:58:08;23.00;99.90
21031;DHT22;61072;47.808;7.636;2022-07-23T05:00:35;23.10;99.90
21031;DHT22;61072;47.808;7.636;2022-07-23T05:03:01;23.10;99.90
21031;DHT22;61072;47.808;7.636;2022-07-23T05:05:28;23.10;99.90
21031;DHT22;61072;47.808;7.636;2022-07-23T05:07:57;23.20;99.90
21031;DHT22;61072;47.808;7.636;2022-07-23T05:10:24;23.20;99.90
21031;DHT22;61072;47.808;7.636;2022-07-23T05:12:52;23.20;99.90
21031;DHT22;61072;47.808;7.636;2022-07-23T05:15:19;23.20;99.90
21031;DHT22;61072;47.808;7.636;2022-07-23T05:17:46;23.30;99.90
21031;DHT22;61072;47.808;7.636;2022-07-23T05:20:13;23.30;99.90
21031;DHT22;61072;47.808;7.636;2022-07-23T05:22:40;23.40;99.90
21031;DHT22;61072;47.808;7.636;2022-07-23T05:25:07;23.40;99.90
21031;DHT22;61072;47.808;7.636;2022-07-23T05:27:34;23.40;99.90
21031;DHT22;61072;47.808;7.636;2022-07-23T05:30:01;23.40;99.90
21031;DHT22;61072;47.808;7.636;2022-07-23T05:32:27;23.40;99.90
21031;DHT22;61072;47.808;7.636;2022-07-23T05:34:54;23.50;99.90
21031;DHT22;61072;47.808;7.636;2022-07-23T05:37:21;23.50;99.90
21031;DHT22;61072;47.808;7.636;2022-07-23T05:39:48;23.50;99.90
21031;DHT22;61072;47.808;7.636;2022-07-23T05:42:14;23.50;99.90
21031;DHT22;61072;47.808;7.636;2022-07-23T05:44:41;23.60;99.90
21031;DHT22;61072;47.808;7.636;2022-07-23T05:47:08;23.70;99.90
21031;DHT22;61072;47.808;7.636;2022-07-23T05:49:37;23.60;99.90
21031;DHT22;61072;47.808;7.636;2022-07-23T05:52:06;23.70;99.90
21031;DHT22;61072;47.808;7.636;2022-07-23T05:54:35;23.70;99.90
21031;DHT22;61072;47.808;7.636;2022-07-23T05:57:03;23.70;99.90
21031;DHT22;61072;47.808;7.636;2022-07-23T05:59:30;23.70;99.90
21031;DHT22;61072;47.808;7.636;2022-07-23T06:01:57;23.70;99.90
21031;DHT22;61072;47.808;7.636;2022-07-23T06:04:23;23.80;99.90
21031;DHT22;61072;47.808;7.636;2022-07-23T06:06:50;23.80;99.90
21031;DHT22;61072;47.808;7.636;2022-07-23T06:09:17;23.90;99.90
21031;DHT22;61072;47.808;7.636;2022-07-23T06:11:44;23.90;99.90
21031;DHT22;61072;47.808;7.636;2022-07-23T06:14:11;24.00;99.90
21031;DHT22;61072;47.808;7.636;2022-07-23T06:16:38;24.10;99.90
21031;DHT22;61072;47.808;7.636;2022-07-23T06:19:04;24.10;99.90
21031;DHT22;61072;47.808;7.636;2022-07-23T06:21:31;24.20;99.90
21031;DHT22;61072;47.808;7.636;2022-07-23T06:24:14;24.30;99.90
21031;DHT22;61072;47.808;7.636;2022-07-23T06:26:40;24.30;99.90
21031;DHT22;61072;47.808;7.636;2022-07-23T06:29:07;24.40;99.90
21031;DHT22;61072;47.808;7.636;2022-07-23T06:31:34;24.50;99.90
21031;DHT22;61072;47.808;7.636;2022-07-23T06:34:01;24.50;99.90
21031;DHT22;61072;47.808;7.636;2022-07-23T06:36:28;24.50;99.90
21031;DHT22;61072;47.808;7.636;2022-07-23T06:38:55;24.60;99.90
21031;DHT22;61072;47.808;7.636;2022-07-23T06:41:22;24.70;99.90
21031;DHT22;61072;47.808;7.636;2022-07-23T06:43:49;24.80;99.90
21031;DHT22;61072;47.808;7.636;2022-07-23T06:46:16;24.80;99.90
21031;DHT22;61072;47.808;7.636;2022-07-23T06:48:43;24.80;99.90
21031;DHT22;61072;47.808;7.636;2022-07-23T06:51:10;24.90;99.90
21031;DHT22;61072;47.808;7.636;2022-07-23T06:53:36;24.90;99.90
21031;DHT22;61072;47.808;7.636;2022-07-23T06:56:03;24.90;99.90
21031;DHT22;61072;47.808;7.636;2022-07-23T06:58:30;25.00;99.90
21031;DHT22;61072;47.808;7.636;2022-07-23T07:00:57;25.00;99.90
21031;DHT22;61072;47.808;7.636;2022-07-23T07:03:23;25.00;99.90
21031;DHT22;61072;47.808;7.636;2022-07-23T07:05:50;25.10;99.90
21031;DHT22;61072;47.808;7.636;2022-07-23T07:08:18;25.10;99.90
21031;DHT22;61072;47.808;7.636;2022-07-23T07:10:45;25.20;99.90
21031;DHT22;61072;47.808;7.636;2022-07-23T07:13:12;25.20;99.90
21031;DHT22;61072;47.808;7.636;2022-07-23T07:15:39;25.30;99.90
21031;DHT22;61072;47.808;7.636;2022-07-23T07:18:06;25.30;99.90
21031;DHT22;61072;47.808;7.636;2022-07-23T07:20:33;25.40;99.90
21031;DHT22;61072;47.808;7.636;2022-07-23T07:23:00;25.50;99.90
21031;DHT22;61072;47.808;7.636;2022-07-23T07:25:26;25.60;99.90
21031;DHT22;61072;47.808;7.636;2022-07-23T07:27:53;25.60;99.90
21031;DHT22;61072;47.808;7.636;2022-07-23T07:30:20;25.70;99.90
21031;DHT22;61072;47.808;7.636;2022-07-23T07:32:47;25.60;99.90
21031;DHT22;61072;47.808;7.636;2022-07-23T07:35:24;25.70;99.90
21031;DHT22;61072;47.808;7.636;2022-07-23T07:37:51;25.80;99.90
21031;DHT22;61072;47.808;7.636;2022-07-23T07:40:18;25.80;99.90
21031;DHT22;61072;47.808;7.636;2022-07-23T07:42:46;25.90;99.90
21031;DHT22;61072;47.808;7.636;2022-07-23T07:45:13;26.00;99.90
21031;DHT22;61072;47.808;7.636;2022-07-23T07:47:40;26.00;99.90
21031;DHT22;61072;47.808;7.636;2022-07-23T07:50:09;26.10;99.90
21031;DHT22;61072;47.808;7.636;2022-07-23T07:52:38;26.10;99.90
21031;DHT22;61072;47.808;7.636;2022-07-23T07:55:08;26.20;99.90
21031;DHT22;61072;47.808;7.636;2022-07-23T07:57:36;26.30;99.90
21031;DHT22;61072;47.808;7.636;2022-07-23T08:00:05;26.30;99.90
21031;DHT22;61072;47.808;7.636;2022-07-23T08:02:44;26.40;99.90
21031;DHT22;61072;47.808;7.636;2022-07-23T08:05:12;26.50;99.90
21031;DHT22;61072;47.808;7.636;2022-07-23T08:07:40;26.60;99.90
21031;DHT22;61072;47.808;7.636;2022-07-23T08:10:10;26.60;99.90
21031;DHT22;61072;47.808;7.636;2022-07-23T08:12:48;26.60;99.90
21031;DHT22;61072;47.808;7.636;2022-07-23T08:15:18;26.70;99.90
21031;DHT22;61072;47.808;7.636;2022-07-23T08:17:49;26.70;99.90
21031;DHT22;61072;47.808;7.636;2022-07-23T08:20:18;26.80;99.90
21031;DHT22;61072;47.808;7.636;2022-07-23T08:22:51;26.80;99.90
21031;DHT22;61072;47.808;7.636;2022-07-23T08:25:24;26.80;99.90
21031;DHT22;61072;47.808;7.636;2022-07-23T08:27:51;26.90;99.90
21031;DHT22;61072;47.808;7.636;2022-07-23T08:30:19;26.90;99.90
21031;DHT22;61072;47.808;7.636;2022-07-23T08:33:00;26.80;99.90
21031;DHT22;61072;47.808;7.636;2022-07-23T08:35:31;26.90;99.90
21031;DHT22;61072;47.808;7.636;2022-07-23T08:38:04;26.80;99.90
21031;DHT22;61072;47.808;7.636;2022-07-23T08:40:34;26.90;99.90
21031;DHT22;61072;47.808;7.636;2022-07-23T08:43:09;27.00;99.90
21031;DHT22;61072;47.808;7.636;2022-07-23T08:45:38;27.00;99.90
21031;DHT22;61072;47.808;7.636;2022-07-23T08:48:12;27.00;99.90
21031;DHT22;61072;47.808;7.636;2022-07-23T08:50:43;26.90;99.90
21031;DHT22;61072;47.808;7.636;2022-07-23T08:53:10;27.00;99.90
21031;DHT22;61072;47.808;7.636;2022-07-23T08:55:37;27.10;99.90
21031;DHT22;61072;47.808;7.636;2022-07-23T08:58:04;27.10;99.90
21031;DHT22;61072;47.808;7.636;2022-07-23T09:00:31;27.20;99.90
21031;DHT22;61072;47.808;7.636;2022-07-23T09:02:58;27.20;99.90
21031;DHT22;61072;47.808;7.636;2022-07-23T09:05:25;27.20;99.90
21031;DHT22;61072;47.808;7.636;2022-07-23T09:08:06;27.20;99.90
21031;DHT22;61072;47.808;7.636;2022-07-23T09:13:28;27.20;99.90
21031;DHT22;61072;47.808;7.636;2022-07-23T09:15:57;27.20;99.90
21031;DHT22;61072;47.808;7.636;2022-07-23T09:18:39;27.20;99.90
21031;DHT22;61072;47.808;7.636;2022-07-23T09:21:35;27.30;99.90
21031;DHT22;61072;47.808;7.636;2022-07-23T09:24:06;27.30;99.90
21031;DHT22;61072;47.808;7.636;2022-07-23T09:31:56;27.60;99.90
21031;DHT22;61072;47.808;7.636;2022-07-23T09:34:31;27.60;99.90
21031;DHT22;61072;47.808;7.636;2022-07-23T09:37:14;27.70;99.90
21031;DHT22;61072;47.808;7.636;2022-07-23T09:39:45;27.70;99.90
21031;DHT22;61072;47.808;7.636;2022-07-23T09:42:25;27.60;99.90
21031;DHT22;61072;47.808;7.636;2022-07-23T09:45:02;27.70;99.90
21031;DHT22;61072;47.808;7.636;2022-07-23T09:47:34;27.70;99.90
21031;DHT22;61072;47.808;7.636;2022-07-23T09:50:08;27.80;99.90
21031;DHT22;61072;47.808;7.636;2022-07-23T09:52:46;27.90;99.90
21031;DHT22;61072;47.808;7.636;2022-07-23T09:55:33;28.00;99.90
21031;DHT22;61072;47.808;7.636;2022-07-23T09:58:06;28.10;99.90
21031;DHT22;61072;47.808;7.636;2022-07-23T10:00:46;28.10;99.90
21031;DHT22;61072;47.808;7.636;2022-07-23T10:03:17;28.10;99.90
21031;DHT22;61072;47.808;7.636;2022-07-23T10:05:50;28.20;99.90
21031;DHT22;61072;47.808;7.636;2022-07-23T10:08:22;28.20;99.90
21031;DHT22;61072;47.808;7.636;2022-07-23T10:10:55;28.20;99.90
21031;DHT22;61072;47.808;7.636;2022-07-23T10:13:22;28.20;99.90
21031;DHT22;61072;47.808;7.636;2022-07-23T10:16:08;28.30;99.90
21031;DHT22;61072;47.808;7.636;2022-07-23T10:18:42;28.40;99.90
21031;DHT22;61072;47.808;7.636;2022-07-23T10:21:14;28.40;99.90
21031;DHT22;61072;47.808;7.636;2022-07-23T10:23:47;28.40;99.90
21031;DHT22;61072;47.808;7.636;2022-07-23T10:26:34;28.30;99.90
21031;DHT22;61072;47.808;7.636;2022-07-23T10:31:50;28.40;99.90
21031;DHT22;61072;47.808;7.636;2022-07-23T10:34:52;28.40;99.90
21031;DHT22;61072;47.808;7.636;2022-07-23T10:37:28;28.50;99.90
21031;DHT22;61072;47.808;7.636;2022-07-23T10:42:37;28.80;99.90
21031;DHT22;61072;47.808;7.636;2022-07-23T10:45:33;28.90;99.90
21031;DHT22;61072;47.808;7.636;2022-07-23T10:48:23;29.00;99.90
21031;DHT22;61072;47.808;7.636;2022-07-23T10:51:28;29.10;99.90
21031;DHT22;61072;47.808;7.636;2022-07-23T10:53:59;29.10;99.90
21031;DHT22;61072;47.808;7.636;2022-07-23T10:59:25;29.10;99.90
21031;DHT22;61072;47.808;7.636;2022-07-23T11:01:52;29.10;99.90
21031;DHT22;61072;47.808;7.636;2022-07-23T11:04:19;29.10;99.90
21031;DHT22;61072;47.808;7.636;2022-07-23T11:09:30;29.10;99.90
21031;DHT22;61072;47.808;7.636;2022-07-23T11:15:11;29.10;99.90
21031;DHT22;61072;47.808;7.636;2022-07-23T11:20:20;29.20;99.90
21031;DHT22;61072;47.808;7.636;2022-07-23T11:22:55;29.20;99.90
21031;DHT22;61072;47.808;7.636;2022-07-23T11:27:51;29.20;99.90
21031;DHT22;61072;47.808;7.636;2022-07-23T11:35:43;29.30;99.90
21031;DHT22;61072;47.808;7.636;2022-07-23T11:38:14;29.30;99.90
21031;DHT22;61072;47.808;7.636;2022-07-23T11:40:46;29.30;99.90
21031;DHT22;61072;47.808;7.636;2022-07-23T11:43:14;29.30;99.90
21031;DHT22;61072;47.808;7.636;2022-07-23T11:45:47;29.30;99.90
21031;DHT22;61072;47.808;7.636;2022-07-23T11:48:24;29.40;99.90
21031;DHT22;61072;47.808;7.636;2022-07-23T11:50:56;29.40;99.90
21031;DHT22;61072;47.808;7.636;2022-07-23T11:53:31;29.50;99.90
21031;DHT22;61072;47.808;7.636;2022-07-23T11:56:11;29.70;99.90
21031;DHT22;61072;47.808;7.636;2022-07-23T11:58:39;29.80;99.90
21031;DHT22;61072;47.808;7.636;2022-07-23T12:01:06;29.80;99.90
21031;DHT22;61072;47.808;7.636;2022-07-23T12:03:49;29.70;99.90
21031;DHT22;61072;47.808;7.636;2022-07-23T12:06:17;29.70;99.90
21031;DHT22;61072;47.808;7.636;2022-07-23T12:08:44;29.70;99.90
21031;DHT22;61072;47.808;7.636;2022-07-23T12:11:12;29.70;99.90
21031;DHT22;61072;47.808;7.636;2022-07-23T12:13:39;29.70;99.90
21031;DHT22;61072;47.808;7.636;2022-07-23T12:16:06;29.80;99.90
21031;DHT22;61072;47.808;7.636;2022-07-23T12:18:34;29.80;99.90
21031;DHT22;61072;47.808;7.636;2022-07-23T12:21:04;29.90;99.90
21031;DHT22;61072;47.808;7.636;2022-07-23T12:23:33;29.90;99.90
21031;DHT22;61072;47.808;7.636;2022-07-23T12:26:03;29.90;99.90
21031;DHT22;61072;47.808;7.636;2022-07-23T12:28:32;29.80;99.90
21031;DHT22;61072;47.808;7.636;2022-07-23T12:31:00;29.80;99.90
21031;DHT22;61072;47.808;7.636;2022-07-23T12:35:59;29.80;99.90
21031;DHT22;61072;47.808;7.636;2022-07-23T12:38:28;29.70;99.90
21031;DHT22;61072;47.808;7.636;2022-07-23T12:40:57;29.70;99.90
21031;DHT22;61072;47.808;7.636;2022-07-23T12:45:55;29.70;99.90
21031;DHT22;61072;47.808;7.636;2022-07-23T12:56:20;29.60;99.90
21031;DHT22;61072;47.808;7.636;2022-07-23T12:58:52;29.70;99.90
21031;DHT22;61072;47.808;7.636;2022-07-23T13:04:17;29.70;99.90
21031;DHT22;61072;47.808;7.636;2022-07-23T13:09:20;29.80;99.90
21031;DHT22;61072;47.808;7.636;2022-07-23T13:11:49;29.80;99.90
21031;DHT22;61072;47.808;7.636;2022-07-23T13:14:17;29.90;99.90
21031;DHT22;61072;47.808;7.636;2022-07-23T13:16:48;29.90;99.90
21031;DHT22;61072;47.808;7.636;2022-07-23T13:19:16;29.90;99.90
21031;DHT22;61072;47.808;7.636;2022-07-23T13:21:45;29.90;99.90
21031;DHT22;61072;47.808;7.636;2022-07-23T13:24:12;29.90;99.90
21031;DHT22;61072;47.808;7.636;2022-07-23T13:26:39;29.80;99.90
21031;DHT22;61072;47.808;7.636;2022-07-23T13:29:07;29.90;99.90
21031;DHT22;61072;47.808;7.636;2022-07-23T13:31:36;29.90;99.90
21031;DHT22;61072;47.808;7.636;2022-07-23T13:34:05;29.90;99.90
21031;DHT22;61072;47.808;7.636;2022-07-23T13:36:34;29.90;99.90
21031;DHT22;61072;47.808;7.636;2022-07-23T13:39:01;29.70;99.90
21031;DHT22;61072;47.808;7.636;2022-07-23T13:41:28;29.80;99.90
21031;DHT22;61072;47.808;7.636;2022-07-23T13:43:56;29.80;99.90
21031;DHT22;61072;47.808;7.636;2022-07-23T13:46:24;29.80;99.90
21031;DHT22;61072;47.808;7.636;2022-07-23T13:48:51;29.80;99.90
21031;DHT22;61072;47.808;7.636;2022-07-23T13:51:18;29.80;99.90
21031;DHT22;61072;47.808;7.636;2022-07-23T13:53:45;29.70;99.90
21031;DHT22;61072;47.808;7.636;2022-07-23T13:56:12;29.70;99.90
21031;DHT22;61072;47.808;7.636;2022-07-23T13:58:39;29.70;99.90
21031;DHT22;61072;47.808;7.636;2022-07-23T14:01:07;29.70;99.90
21031;DHT22;61072;47.808;7.636;2022-07-23T14:03:34;29.70;99.90
21031;DHT22;61072;47.808;7.636;2022-07-23T14:06:01;29.70;99.90
21031;DHT22;61072;47.808;7.636;2022-07-23T14:08:28;29.60;99.90
21031;DHT22;61072;47.808;7.636;2022-07-23T14:10:55;29.60;99.90
21031;DHT22;61072;47.808;7.636;2022-07-23T14:13:25;29.70;99.90
21031;DHT22;61072;47.808;7.636;2022-07-23T14:15:51;29.70;99.90
21031;DHT22;61072;47.808;7.636;2022-07-23T14:18:18;29.70;99.90
21031;DHT22;61072;47.808;7.636;2022-07-23T14:20:47;29.80;99.90
21031;DHT22;61072;47.808;7.636;2022-07-23T14:23:14;29.90;99.90
21031;DHT22;61072;47.808;7.636;2022-07-23T14:25:40;29.90;99.90
21031;DHT22;61072;47.808;7.636;2022-07-23T14:28:08;30.00;99.90
21031;DHT22;61072;47.808;7.636;2022-07-23T14:30:35;30.00;99.90
21031;DHT22;61072;47.808;7.636;2022-07-23T14:33:02;30.10;99.90
21031;DHT22;61072;47.808;7.636;2022-07-23T14:35:29;30.20;99.90
21031;DHT22;61072;47.808;7.636;2022-07-23T14:37:55;30.20;99.90
21031;DHT22;61072;47.808;7.636;2022-07-23T14:40:23;30.30;99.90
21031;DHT22;61072;47.808;7.636;2022-07-23T14:42:50;30.40;99.90
21031;DHT22;61072;47.808;7.636;2022-07-23T14:45:19;30.40;99.90
21031;DHT22;61072;47.808;7.636;2022-07-23T14:47:47;30.40;99.90
21031;DHT22;61072;47.808;7.636;2022-07-23T14:50:15;30.40;99.90
21031;DHT22;61072;47.808;7.636;2022-07-23T14:52:43;30.30;99.90
21031;DHT22;61072;47.808;7.636;2022-07-23T14:55:09;30.30;99.90
21031;DHT22;61072;47.808;7.636;2022-07-23T14:57:36;30.30;99.90
21031;DHT22;61072;47.808;7.636;2022-07-23T15:00:04;30.20;99.90
21031;DHT22;61072;47.808;7.636;2022-07-23T15:02:31;30.20;99.90
21031;DHT22;61072;47.808;7.636;2022-07-23T15:04:59;30.20;99.90
21031;DHT22;61072;47.808;7.636;2022-07-23T15:07:28;30.20;99.90
21031;DHT22;61072;47.808;7.636;2022-07-23T15:09:57;30.10;99.90
21031;DHT22;61072;47.808;7.636;2022-07-23T15:12:24;30.10;99.90
21031;DHT22;61072;47.808;7.636;2022-07-23T15:14:51;29.90;99.90
21031;DHT22;61072;47.808;7.636;2022-07-23T15:17:18;29.70;99.90
21031;DHT22;61072;47.808;7.636;2022-07-23T15:19:47;29.50;99.90
21031;DHT22;61072;47.808;7.636;2022-07-23T15:22:15;29.50;99.90
21031;DHT22;61072;47.808;7.636;2022-07-23T15:24:42;29.40;99.90
21031;DHT22;61072;47.808;7.636;2022-07-23T15:27:09;29.50;99.90
21031;DHT22;61072;47.808;7.636;2022-07-23T15:29:36;29.50;99.90
21031;DHT22;61072;47.808;7.636;2022-07-23T15:32:03;29.50;99.90
21031;DHT22;61072;47.808;7.636;2022-07-23T15:34:30;29.40;99.90
21031;DHT22;61072;47.808;7.636;2022-07-23T15:37:00;29.30;99.90
21031;DHT22;61072;47.808;7.636;2022-07-23T15:39:27;29.30;99.90
21031;DHT22;61072;47.808;7.636;2022-07-23T15:41:54;29.10;99.90
21031;DHT22;61072;47.808;7.636;2022-07-23T15:44:24;29.10;99.90
21031;DHT22;61072;47.808;7.636;2022-07-23T15:46:56;29.00;99.90
21031;DHT22;61072;47.808;7.636;2022-07-23T15:49:25;29.00;99.90
21031;DHT22;61072;47.808;7.636;2022-07-23T15:51:52;28.90;99.90
21031;DHT22;61072;47.808;7.636;2022-07-23T15:54:19;28.90;99.90
21031;DHT22;61072;47.808;7.636;2022-07-23T15:56:46;29.00;99.90
21031;DHT22;61072;47.808;7.636;2022-07-23T15:59:15;29.00;99.90
21031;DHT22;61072;47.808;7.636;2022-07-23T16:01:42;29.00;99.90
21031;DHT22;61072;47.808;7.636;2022-07-23T16:04:09;28.90;99.90
21031;DHT22;61072;47.808;7.636;2022-07-23T16:06:36;28.90;99.90
21031;DHT22;61072;47.808;7.636;2022-07-23T16:09:03;28.90;99.90
21031;DHT22;61072;47.808;7.636;2022-07-23T16:11:33;28.80;99.90
21031;DHT22;61072;47.808;7.636;2022-07-23T16:14:00;28.80;99.90
21031;DHT22;61072;47.808;7.636;2022-07-23T16:16:27;28.80;99.90
21031;DHT22;61072;47.808;7.636;2022-07-23T16:18:55;28.80;99.90
21031;DHT22;61072;47.808;7.636;2022-07-23T16:21:23;28.70;99.90
21031;DHT22;61072;47.808;7.636;2022-07-23T16:23:50;28.70;99.90
21031;DHT22;61072;47.808;7.636;2022-07-23T16:26:18;28.70;99.90
21031;DHT22;61072;47.808;7.636;2022-07-23T16:28:47;28.80;99.90
21031;DHT22;61072;47.808;7.636;2022-07-23T16:31:14;28.80;99.90